createdAt,value
2022-09-15T00:00:32.852Z,6.35
2022-09-15T00:02:59.903Z,8.55
2022-09-15T00:05:27.177Z,8.70
2022-09-15T00:07:54.253Z,8.60
2022-09-15T00:10:21.421Z,7.35
2022-09-15T00:12:48.426Z,6.88
2022-09-15T00:15:15.920Z,7.28
2022-09-15T00:17:43.348Z,8.70
2022-09-15T00:20:10.940Z,7.30
2022-09-15T00:22:38.121Z,7.95
2022-09-15T00:25:06.035Z,10.65
2022-09-15T00:27:33.321Z,7.50
2022-09-15T00:30:00.384Z,7.83
2022-09-15T00:32:27.763Z,9.02
2022-09-15T00:34:55.024Z,8.32
2022-09-15T00:37:22.072Z,8.73
2022-09-15T00:39:49.119Z,7.13
2022-09-15T00:42:19.621Z,7.23
2022-09-15T00:44:46.545Z,7.03
2022-09-15T00:47:19.509Z,9.07
2022-09-15T00:49:49.126Z,8.02
2022-09-15T00:52:16.311Z,7.90
2022-09-15T00:55:02.253Z,7.83
2022-09-15T00:57:49.558Z,8.02
2022-09-15T01:00:18.596Z,6.30
2022-09-15T01:02:46.381Z,7.43
2022-09-15T01:05:14.373Z,9.60
2022-09-15T01:07:47.552Z,8.37
2022-09-15T01:10:34.718Z,8.02
2022-09-15T01:13:03.350Z,7.57
2022-09-15T01:15:42.185Z,10.18
2022-09-15T01:18:15.150Z,7.40
2022-09-15T01:20:52.020Z,7.33
2022-09-15T01:23:31.339Z,8.38
2022-09-15T01:26:13.745Z,7.80
2022-09-15T01:28:49.934Z,7.38
2022-09-15T01:31:23.597Z,7.32
2022-09-15T01:34:06.022Z,7.13
2022-09-15T01:36:41.894Z,7.47
2022-09-15T01:39:25.821Z,8.25
2022-09-15T01:41:58.942Z,7.60
2022-09-15T01:44:41.034Z,6.80
2022-09-15T01:47:09.098Z,8.40
2022-09-15T01:49:51.293Z,7.93
2022-09-15T01:52:19.985Z,6.60
2022-09-15T01:54:49.251Z,8.35
2022-09-15T01:57:17.399Z,8.95
2022-09-15T01:59:44.522Z,7.20
2022-09-15T02:02:14.213Z,7.43
2022-09-15T02:04:46.989Z,6.93
2022-09-15T02:07:20.649Z,7.75
2022-09-15T02:10:11.418Z,8.27
2022-09-15T02:12:42.243Z,7.10
2022-09-15T02:15:14.976Z,7.22
2022-09-15T02:17:45.721Z,7.47
2022-09-15T02:20:25.673Z,8.00
2022-09-15T02:22:55.763Z,7.40
2022-09-15T02:25:26.862Z,6.67
2022-09-15T02:27:56.513Z,6.63
2022-09-15T02:30:24.098Z,7.47
2022-09-15T02:32:54.385Z,7.18
2022-09-15T02:35:22.315Z,7.85
2022-09-15T02:37:49.942Z,8.20
2022-09-15T02:40:17.054Z,7.07
2022-09-15T02:42:52.243Z,7.50
2022-09-15T02:45:20.196Z,6.75
2022-09-15T02:47:47.227Z,8.73
2022-09-15T02:50:14.248Z,7.00
2022-09-15T02:52:41.546Z,9.52
2022-09-15T02:55:09.046Z,7.60
2022-09-15T02:57:36.130Z,6.65
2022-09-15T03:00:14.685Z,7.47
2022-09-15T03:02:42.798Z,7.40
2022-09-15T03:05:09.843Z,7.47
2022-09-15T03:07:38.084Z,6.88
2022-09-15T03:10:05.998Z,8.80
2022-09-15T03:12:39.724Z,7.47
2022-09-15T03:15:07.796Z,9.67
2022-09-15T03:17:35.706Z,7.00
2022-09-15T03:20:07.330Z,8.68
2022-09-15T03:22:34.502Z,8.20
2022-09-15T03:25:01.807Z,6.32
2022-09-15T03:27:29.795Z,7.10
2022-09-15T03:29:56.818Z,8.07
2022-09-15T03:32:24.027Z,6.55
2022-09-15T03:34:53.229Z,7.05
2022-09-15T03:37:22.570Z,7.28
2022-09-15T03:39:49.739Z,8.60
2022-09-15T03:42:16.758Z,7.90
2022-09-15T03:44:43.758Z,8.30
2022-09-15T03:47:10.926Z,8.85
2022-09-15T03:49:38.526Z,7.47
2022-09-15T03:52:05.520Z,7.17
2022-09-15T03:54:32.905Z,7.93
2022-09-15T03:56:59.897Z,7.97
2022-09-15T03:59:26.950Z,8.70
2022-09-15T04:01:53.938Z,9.13
2022-09-15T04:04:20.933Z,7.03
2022-09-15T04:06:48.025Z,6.53
2022-09-15T04:09:15.209Z,7.32
2022-09-15T04:11:42.840Z,7.80
2022-09-15T04:14:09.903Z,7.80
2022-09-15T04:16:37.068Z,7.27
2022-09-15T04:19:04.892Z,7.45
2022-09-15T04:21:32.251Z,7.65
2022-09-15T04:23:59.308Z,7.18
2022-09-15T04:26:28.334Z,6.88
2022-09-15T04:28:55.539Z,8.13
2022-09-15T04:31:22.703Z,6.95
2022-09-15T04:33:52.124Z,6.57
2022-09-15T04:36:21.186Z,7.18
2022-09-15T04:38:48.564Z,7.78
2022-09-15T04:41:15.512Z,8.30
2022-09-15T04:43:43.353Z,8.52
2022-09-15T04:46:10.978Z,7.13
2022-09-15T04:48:37.966Z,7.85
2022-09-15T04:51:06.196Z,8.38
2022-09-15T04:53:33.450Z,8.23
2022-09-15T04:56:07.875Z,8.88
2022-09-15T04:58:39.098Z,7.25
2022-09-15T05:01:10.364Z,7.03
2022-09-15T05:03:37.873Z,8.40
2022-09-15T05:06:08.897Z,8.83
2022-09-15T05:08:36.442Z,7.47
2022-09-15T05:11:05.123Z,7.85
2022-09-15T05:13:33.193Z,8.25
2022-09-15T05:16:12.074Z,9.55
2022-09-15T05:18:39.823Z,8.90
2022-09-15T05:21:07.504Z,8.10
2022-09-15T05:23:35.349Z,10.10
2022-09-15T05:26:03.953Z,8.00
2022-09-15T05:28:32.148Z,7.47
2022-09-15T05:30:59.465Z,10.37
2022-09-15T05:33:26.577Z,8.15
2022-09-15T05:35:57.672Z,9.85
2022-09-15T05:38:25.381Z,8.02
2022-09-15T05:40:52.443Z,8.45
2022-09-15T05:43:20.257Z,9.30
2022-09-15T05:45:56.433Z,8.63
2022-09-15T05:48:24.574Z,8.57
2022-09-15T05:50:52.837Z,7.65
2022-09-15T05:53:20.146Z,9.15
2022-09-15T05:55:47.228Z,8.53
2022-09-15T05:58:15.012Z,8.27
2022-09-15T06:00:42.462Z,9.48
2022-09-15T06:03:14.104Z,7.63
2022-09-15T06:05:41.353Z,8.63
2022-09-15T06:08:08.581Z,9.10
2022-09-15T06:10:35.759Z,9.00
2022-09-15T06:13:02.930Z,9.60
2022-09-15T06:15:30.868Z,8.40
2022-09-15T06:17:58.155Z,9.90
2022-09-15T06:20:25.601Z,9.93
2022-09-15T06:22:53.312Z,7.32
2022-09-15T06:25:20.310Z,9.48
2022-09-15T06:27:48.889Z,8.30
2022-09-15T06:30:16.049Z,9.40
2022-09-15T06:32:47.931Z,8.53
2022-09-15T06:35:15.613Z,9.07
2022-09-15T06:37:42.665Z,8.07
2022-09-15T06:40:10.225Z,7.97
2022-09-15T06:42:37.285Z,10.30
2022-09-15T06:45:04.508Z,8.07
2022-09-15T06:47:34.065Z,8.70
2022-09-15T06:50:01.224Z,7.85
2022-09-15T06:52:28.318Z,10.05
2022-09-15T06:54:55.372Z,12.77
2022-09-15T06:57:22.310Z,12.30
2022-09-15T06:59:49.365Z,9.27
2022-09-15T07:02:16.450Z,9.75
2022-09-15T07:04:43.607Z,9.20
2022-09-15T07:07:10.791Z,7.80
2022-09-15T07:09:41.178Z,9.30
2022-09-15T07:12:08.704Z,9.13
2022-09-15T07:14:35.645Z,8.70
2022-09-15T07:17:02.937Z,7.50
2022-09-15T07:19:29.893Z,10.20
2022-09-15T07:21:56.847Z,7.97
2022-09-15T07:24:23.850Z,9.25
2022-09-15T07:26:52.269Z,9.40
2022-09-15T07:29:19.310Z,8.57
2022-09-15T07:31:46.361Z,9.43
2022-09-15T07:34:13.325Z,8.80
2022-09-15T07:36:40.618Z,9.35
2022-09-15T07:39:07.558Z,9.95
2022-09-15T07:41:34.603Z,8.68
2022-09-15T07:44:01.686Z,9.70
2022-09-15T07:46:31.210Z,11.10
2022-09-15T07:48:58.366Z,9.32
2022-09-15T07:51:26.810Z,11.23
2022-09-15T07:53:54.026Z,9.15
2022-09-15T07:56:21.716Z,10.30
2022-09-15T07:58:49.260Z,13.43
2022-09-15T08:01:17.150Z,12.35
2022-09-15T08:03:52.047Z,11.77
2022-09-15T08:06:20.766Z,10.52
2022-09-15T08:08:49.044Z,10.25
2022-09-15T08:11:19.415Z,15.30
2022-09-15T08:13:47.476Z,14.45
2022-09-15T08:16:16.147Z,14.93
2022-09-15T08:18:44.233Z,11.95
2022-09-15T08:21:12.627Z,11.55
2022-09-15T08:23:39.856Z,13.40
2022-09-15T08:26:11.819Z,14.50
2022-09-15T08:28:40.888Z,12.18
2022-09-15T08:31:09.083Z,14.13
2022-09-15T08:33:36.382Z,10.55
2022-09-15T08:36:08.258Z,11.10
2022-09-15T08:38:35.483Z,13.65
2022-09-15T08:41:05.192Z,11.15
2022-09-15T08:43:38.459Z,12.88
2022-09-15T08:46:07.245Z,10.90
2022-09-15T08:48:37.889Z,12.00
2022-09-15T08:51:06.387Z,10.82
2022-09-15T08:53:40.552Z,11.27
2022-09-15T08:56:14.098Z,12.93
2022-09-15T08:58:41.244Z,14.25
2022-09-15T09:01:11.660Z,11.53
2022-09-15T09:03:41.968Z,11.93
2022-09-15T09:06:15.108Z,12.95
2022-09-15T09:08:56.235Z,10.85
2022-09-15T09:11:23.387Z,10.23
2022-09-15T09:13:53.613Z,11.20
2022-09-15T09:16:39.608Z,12.13
2022-09-15T09:19:06.630Z,10.70
2022-09-15T09:21:36.272Z,13.00
2022-09-15T09:24:03.612Z,9.45
2022-09-15T09:26:31.586Z,15.50
2022-09-15T09:28:59.936Z,13.15
2022-09-15T09:31:28.197Z,14.20
2022-09-15T09:34:10.236Z,10.32
2022-09-15T09:36:37.780Z,11.65
2022-09-15T09:39:05.196Z,11.43
2022-09-15T09:41:36.466Z,12.80
2022-09-15T09:44:05.771Z,10.13
2022-09-15T09:46:33.095Z,11.75
2022-09-15T09:49:03.283Z,9.68
2022-09-15T09:51:31.129Z,11.63
2022-09-15T09:54:04.041Z,8.93
2022-09-15T09:56:32.275Z,6.85
2022-09-15T09:58:59.358Z,11.15
2022-09-15T10:01:26.652Z,8.68
2022-09-15T10:04:12.556Z,8.50
2022-09-15T10:06:40.594Z,11.50
2022-09-15T10:09:18.109Z,9.70
2022-09-15T10:11:48.162Z,8.45
2022-09-15T10:14:38.758Z,8.18
2022-09-15T10:17:10.271Z,9.70
2022-09-15T10:19:44.477Z,10.18
2022-09-15T10:22:30.376Z,8.65
2022-09-15T10:24:57.972Z,15.25
2022-09-15T10:27:30.430Z,8.45
2022-09-15T10:30:12.921Z,9.57
2022-09-15T10:32:42.686Z,10.35
2022-09-15T10:35:11.540Z,9.85
2022-09-15T10:37:57.354Z,8.52
2022-09-15T10:40:37.713Z,6.35
2022-09-15T10:43:11.755Z,6.67
2022-09-15T10:45:39.844Z,8.40
2022-09-15T10:48:31.740Z,9.07
2022-09-15T10:51:03.869Z,8.40
2022-09-15T10:53:34.078Z,8.43
2022-09-15T10:56:20.157Z,8.77
2022-09-15T10:58:47.422Z,7.43
2022-09-15T11:01:23.946Z,9.07
2022-09-15T11:03:54.251Z,9.75
2022-09-15T11:06:30.274Z,11.38
2022-09-15T11:09:13.076Z,8.90
2022-09-15T11:11:49.274Z,11.70
2022-09-15T11:14:30.289Z,9.13
2022-09-15T11:16:57.421Z,11.48
2022-09-15T11:19:27.581Z,9.77
2022-09-15T11:21:57.952Z,9.07
2022-09-15T11:24:28.118Z,8.13
2022-09-15T11:26:57.510Z,8.05
2022-09-15T11:29:30.583Z,8.00
2022-09-15T11:32:04.753Z,9.88
2022-09-15T11:34:54.822Z,11.63
2022-09-15T11:37:25.072Z,9.25
2022-09-15T11:40:05.625Z,8.98
2022-09-15T11:42:35.999Z,11.32
2022-09-15T11:45:03.490Z,10.18
2022-09-15T11:47:33.489Z,9.37
2022-09-15T11:50:10.024Z,12.35
2022-09-15T11:53:12.884Z,8.13
2022-09-15T11:55:43.589Z,9.18
2022-09-15T11:58:23.109Z,9.60
2022-09-15T12:00:53.606Z,11.70
2022-09-15T12:03:43.257Z,13.07
2022-09-15T12:06:14.691Z,13.85
2022-09-15T12:08:51.085Z,11.02
2022-09-15T12:11:20.474Z,19.98
2022-09-15T12:13:48.008Z,16.87
2022-09-15T12:16:16.195Z,13.07
2022-09-15T12:18:58.548Z,18.17
2022-09-15T12:21:31.499Z,13.15
2022-09-15T12:23:58.565Z,11.55
2022-09-15T12:26:26.600Z,10.03
2022-09-15T12:28:58.700Z,10.60
2022-09-15T12:31:25.920Z,12.32
2022-09-15T12:33:57.034Z,12.55
2022-09-15T12:36:38.649Z,12.27
2022-09-15T12:39:26.083Z,12.73
2022-09-15T12:41:56.011Z,7.53
2022-09-15T12:44:35.061Z,11.73
2022-09-15T12:47:02.909Z,9.10
2022-09-15T12:49:32.652Z,9.00
2022-09-15T12:52:00.929Z,7.53
2022-09-15T12:54:33.128Z,9.73
2022-09-15T12:57:00.706Z,9.13
2022-09-15T12:59:28.456Z,8.20
2022-09-15T13:01:56.180Z,8.82
2022-09-15T13:04:41.818Z,9.23
2022-09-15T13:07:15.258Z,10.77
2022-09-15T13:09:59.449Z,7.10
2022-09-15T13:12:30.917Z,8.65
2022-09-15T13:14:59.942Z,8.88
2022-09-15T13:17:27.253Z,7.87
2022-09-15T13:19:57.389Z,10.13
2022-09-15T13:22:30.245Z,8.00
2022-09-15T13:25:06.703Z,8.77
2022-09-15T13:27:45.073Z,7.57
2022-09-15T13:30:21.498Z,6.20
2022-09-15T13:32:52.419Z,6.75
2022-09-15T13:35:28.753Z,7.50
2022-09-15T13:38:08.287Z,8.48
2022-09-15T13:41:12.095Z,7.07
2022-09-15T13:43:42.411Z,5.20
2022-09-15T13:46:18.803Z,7.72
2022-09-15T13:48:49.833Z,7.07
2022-09-15T13:51:23.348Z,8.23
2022-09-15T13:53:56.508Z,6.30
2022-09-15T13:56:27.715Z,8.90
2022-09-15T13:59:03.512Z,8.15
2022-09-15T14:01:38.737Z,7.10
2022-09-15T14:04:19.505Z,8.50
2022-09-15T14:06:51.391Z,7.55
2022-09-15T14:09:21.653Z,6.87
2022-09-15T14:11:50.537Z,6.72
2022-09-15T14:14:24.009Z,7.82
2022-09-15T14:16:51.226Z,7.00
2022-09-15T14:19:21.452Z,6.85
2022-09-15T14:21:49.162Z,6.07
2022-09-15T14:24:20.272Z,8.07
2022-09-15T14:26:48.227Z,5.85
2022-09-15T14:29:18.987Z,7.70
2022-09-15T14:31:47.311Z,6.85
2022-09-15T14:34:20.125Z,8.93
2022-09-15T14:37:02.066Z,7.28
2022-09-15T14:39:29.551Z,8.00
2022-09-15T14:41:57.065Z,6.38
2022-09-15T14:47:14.068Z,7.73
2022-09-15T14:49:41.132Z,7.43
2022-09-15T14:52:29.543Z,6.72
2022-09-15T14:54:59.721Z,8.27
2022-09-15T14:57:31.009Z,6.68
2022-09-15T15:00:02.556Z,7.40
2022-09-15T15:02:38.555Z,7.78
2022-09-15T15:05:11.032Z,6.35
2022-09-15T15:07:38.685Z,5.60
2022-09-15T15:10:07.477Z,5.05
2022-09-15T15:12:36.101Z,7.17
2022-09-15T15:15:04.610Z,6.38
2022-09-15T15:17:36.552Z,5.47
2022-09-15T15:20:06.751Z,7.88
2022-09-15T15:22:34.347Z,8.45
2022-09-15T15:25:02.148Z,7.10
2022-09-15T15:27:32.479Z,7.18
2022-09-15T15:30:18.481Z,10.02
2022-09-15T15:32:45.730Z,7.63
2022-09-15T15:35:15.096Z,8.48
2022-09-15T15:37:42.199Z,8.20
2022-09-15T15:40:21.238Z,10.02
2022-09-15T15:43:00.066Z,7.72
2022-09-15T15:45:29.987Z,6.70
2022-09-15T15:47:57.417Z,7.25
2022-09-15T15:50:26.178Z,5.93
2022-09-15T15:52:53.372Z,7.85
2022-09-15T15:55:22.118Z,7.72
2022-09-15T15:57:51.206Z,8.50
2022-09-15T16:00:22.197Z,9.15
2022-09-15T16:02:52.754Z,5.67
2022-09-15T16:05:20.795Z,6.43
2022-09-15T16:07:49.761Z,5.97
2022-09-15T16:10:18.742Z,7.30
2022-09-15T16:12:45.958Z,6.78
2022-09-15T16:15:14.332Z,6.60
2022-09-15T16:17:45.927Z,5.90
2022-09-15T16:20:19.692Z,9.00
2022-09-15T16:22:49.143Z,7.90
2022-09-15T16:25:18.228Z,6.63
2022-09-15T16:27:45.429Z,5.77
2022-09-15T16:30:12.546Z,5.97
2022-09-15T16:32:40.536Z,6.00
2022-09-15T16:35:18.717Z,6.28
2022-09-15T16:37:45.938Z,7.88
2022-09-15T16:40:13.219Z,5.70
2022-09-15T16:42:40.385Z,7.18
2022-09-15T16:45:17.538Z,7.15
2022-09-15T16:47:44.658Z,7.15
2022-09-15T16:50:11.997Z,9.73
2022-09-15T16:52:39.475Z,7.20
2022-09-15T16:55:19.724Z,9.57
2022-09-15T16:57:47.004Z,9.02
2022-09-15T17:00:14.660Z,8.30
2022-09-15T17:02:41.650Z,8.60
2022-09-15T17:05:15.321Z,7.43
2022-09-15T17:07:42.678Z,10.63
2022-09-15T17:10:10.055Z,12.00
2022-09-15T17:12:38.064Z,12.50
2022-09-15T17:15:19.836Z,9.15
2022-09-15T17:17:47.786Z,7.60
2022-09-15T17:20:15.505Z,8.10
2022-09-15T17:22:42.635Z,8.65
2022-09-15T17:25:27.003Z,6.35
2022-09-15T17:27:54.119Z,10.95
2022-09-15T17:30:22.480Z,7.10
2022-09-15T17:32:49.936Z,8.23
2022-09-15T17:35:22.594Z,8.00
2022-09-15T17:37:51.097Z,6.65
2022-09-15T17:40:19.595Z,7.78
2022-09-15T17:42:47.776Z,7.10
2022-09-15T17:45:20.252Z,9.45
2022-09-15T17:47:48.000Z,10.38
2022-09-15T17:50:16.638Z,6.68
2022-09-15T17:52:44.266Z,7.97
2022-09-15T17:55:12.788Z,10.87
2022-09-15T17:57:39.953Z,7.63
2022-09-15T18:00:07.772Z,7.32
2022-09-15T18:02:35.102Z,9.00
2022-09-15T18:05:03.642Z,7.00
2022-09-15T18:07:30.956Z,8.33
2022-09-15T18:09:59.911Z,8.55
2022-09-15T18:12:27.460Z,7.50
2022-09-15T18:14:54.759Z,8.95
2022-09-15T18:17:21.884Z,8.40
2022-09-15T18:19:50.126Z,7.00
2022-09-15T18:22:17.193Z,4.72
2022-09-15T18:24:44.214Z,7.47
2022-09-15T18:27:11.365Z,8.05
2022-09-15T18:29:38.320Z,8.23
2022-09-15T18:32:05.316Z,7.37
2022-09-15T18:34:32.823Z,7.30
2022-09-15T18:36:59.780Z,8.00
2022-09-15T18:39:26.887Z,5.75
2022-09-15T18:41:54.055Z,6.05
2022-09-15T18:44:21.794Z,5.10
2022-09-15T18:46:48.858Z,5.78
2022-09-15T18:49:16.020Z,6.05
2022-09-15T18:51:58.291Z,5.55
2022-09-15T18:54:25.305Z,5.85
2022-09-15T18:56:52.322Z,10.13
2022-09-15T18:59:19.564Z,6.43
2022-09-15T19:01:47.168Z,7.13
2022-09-15T19:04:14.337Z,10.80
2022-09-15T19:06:41.395Z,5.25
2022-09-15T19:09:08.569Z,6.37
2022-09-15T19:11:35.547Z,7.38
2022-09-15T19:14:02.552Z,5.95
2022-09-15T19:16:46.637Z,7.55
2022-09-15T19:19:16.971Z,8.02
2022-09-15T19:21:44.252Z,7.87
2022-09-15T19:24:11.267Z,6.78
2022-09-15T19:26:38.332Z,6.28
2022-09-15T19:29:05.790Z,6.38
2022-09-15T19:31:32.756Z,5.45
2022-09-15T19:33:59.798Z,6.23
2022-09-15T19:36:29.007Z,5.82
2022-09-15T19:39:00.499Z,7.07
2022-09-15T19:41:27.589Z,7.05
2022-09-15T19:43:54.959Z,7.70
2022-09-15T19:46:26.089Z,5.40
2022-09-15T19:48:53.668Z,6.05
2022-09-15T19:51:21.191Z,5.00
2022-09-15T19:53:48.360Z,7.10
2022-09-15T19:56:16.437Z,5.95
2022-09-15T19:58:43.996Z,6.47
2022-09-15T20:01:11.254Z,5.95
2022-09-15T20:03:38.429Z,7.38
2022-09-15T20:06:06.835Z,14.70
2022-09-15T20:08:34.267Z,9.13
2022-09-15T20:11:04.425Z,20.50
2022-09-15T20:13:31.315Z,8.60
2022-09-15T20:15:59.785Z,7.53
2022-09-15T20:18:27.274Z,11.20
2022-09-15T20:20:54.622Z,9.65
2022-09-15T20:23:21.621Z,11.10
2022-09-15T20:25:57.770Z,9.88
2022-09-15T20:28:24.773Z,9.88
2022-09-15T20:31:18.182Z,9.23
2022-09-15T20:33:45.858Z,10.80
2022-09-15T20:36:15.811Z,12.50
2022-09-15T20:38:43.287Z,8.02
2022-09-15T20:41:11.376Z,8.07
2022-09-15T20:43:39.016Z,7.18
2022-09-15T20:46:07.776Z,8.82
2022-09-15T20:48:36.618Z,8.00
2022-09-15T20:51:04.886Z,6.75
2022-09-15T20:53:32.582Z,6.45
2022-09-15T20:55:59.897Z,4.70
2022-09-15T20:58:27.326Z,4.90
2022-09-15T21:01:03.263Z,6.43
2022-09-15T21:03:30.539Z,4.90
2022-09-15T21:06:17.231Z,6.85
2022-09-15T21:08:45.294Z,7.53
2022-09-15T21:11:12.418Z,9.32
2022-09-15T21:13:40.460Z,8.70
2022-09-15T21:16:11.990Z,7.80
2022-09-15T21:18:39.692Z,20.45
2022-09-15T21:21:08.910Z,19.42
2022-09-15T21:23:40.817Z,14.35
2022-09-15T21:26:09.289Z,8.87
2022-09-15T21:28:36.552Z,10.20
2022-09-15T21:31:04.880Z,11.27
2022-09-15T21:33:32.307Z,11.25
2022-09-15T21:36:07.084Z,10.82
2022-09-15T21:38:34.629Z,8.37
2022-09-15T21:41:01.863Z,10.23
2022-09-15T21:43:29.829Z,9.90
2022-09-15T21:45:57.511Z,9.73
2022-09-15T21:48:24.974Z,8.93
2022-09-15T21:50:52.332Z,11.17
2022-09-15T21:53:20.181Z,8.10
2022-09-15T21:55:50.251Z,9.65
2022-09-15T21:58:21.450Z,6.32
2022-09-15T22:00:48.890Z,9.65
2022-09-15T22:03:16.214Z,12.00
2022-09-15T22:05:45.888Z,9.73
2022-09-15T22:08:13.876Z,7.45
2022-09-15T22:10:41.493Z,8.40
2022-09-15T22:13:09.132Z,7.93
2022-09-15T22:15:36.563Z,7.77
2022-09-15T22:18:04.164Z,9.93
2022-09-15T22:20:31.217Z,6.75
2022-09-15T22:23:01.717Z,9.65
2022-09-15T22:25:29.053Z,9.07
2022-09-15T22:27:56.326Z,7.50
2022-09-15T22:30:23.738Z,6.70
2022-09-15T22:32:50.756Z,7.68
2022-09-15T22:35:17.835Z,10.95
2022-09-15T22:37:45.010Z,9.95
2022-09-15T22:40:12.016Z,8.03
2022-09-15T22:42:39.207Z,5.32
2022-09-15T22:45:07.385Z,6.63
2022-09-15T22:47:34.425Z,5.70
2022-09-15T22:50:01.752Z,11.40
2022-09-15T22:52:28.676Z,8.43
2022-09-15T22:54:55.636Z,8.48
2022-09-15T22:57:22.806Z,7.68
2022-09-15T22:59:49.703Z,7.25
2022-09-15T23:02:16.963Z,7.70
2022-09-15T23:04:44.088Z,8.57
2022-09-15T23:07:11.224Z,6.45
2022-09-15T23:09:38.469Z,6.38
2022-09-15T23:12:09.940Z,6.53
2022-09-15T23:14:37.096Z,6.28
2022-09-15T23:17:04.049Z,8.00
2022-09-15T23:19:31.065Z,6.25
2022-09-15T23:21:58.025Z,6.65
2022-09-15T23:24:25.924Z,7.47
2022-09-15T23:26:52.945Z,7.80
2022-09-15T23:29:19.889Z,8.43
2022-09-15T23:31:47.264Z,6.72
2022-09-15T23:34:14.326Z,6.50
2022-09-15T23:36:41.297Z,6.30
2022-09-15T23:39:08.327Z,6.30
2022-09-15T23:41:36.940Z,6.20
2022-09-15T23:44:04.055Z,8.15
2022-09-15T23:46:31.275Z,5.78
2022-09-15T23:48:58.576Z,5.55
2022-09-15T23:51:25.730Z,6.47
2022-09-15T23:53:52.755Z,7.30
2022-09-15T23:56:19.816Z,6.25
2022-09-15T23:58:46.822Z,5.50
